sensor_id;sensor_type;location;lat;lon;timestamp;P1;durP1;ratioP1;P2;durP2;ratioP2
51224;SDS011;37298;42.688;23.312;2023-05-07T00:00:35;14.35;;;7.63;;
51224;SDS011;37298;42.688;23.312;2023-05-07T00:03:02;11.05;;;6.95;;
51224;SDS011;37298;42.688;23.312;2023-05-07T00:05:29;14.15;;;7.28;;
51224;SDS011;37298;42.688;23.312;2023-05-07T00:07:56;21.83;;;7.43;;
51224;SDS011;37298;42.688;23.312;2023-05-07T00:10:23;11.70;;;6.70;;
51224;SDS011;37298;42.688;23.312;2023-05-07T00:12:50;9.18;;;6.07;;
51224;SDS011;37298;42.688;23.312;2023-05-07T00:15:19;13.43;;;6.88;;
51224;SDS011;37298;42.688;23.312;2023-05-07T00:17:45;9.68;;;6.70;;
51224;SDS011;37298;42.688;23.312;2023-05-07T00:20:12;10.38;;;6.80;;
51224;SDS011;37298;42.688;23.312;2023-05-07T00:22:39;16.95;;;7.35;;
51224;SDS011;37298;42.688;23.312;2023-05-07T00:25:07;9.93;;;6.63;;
51224;SDS011;37298;42.688;23.312;2023-05-07T00:27:34;11.80;;;7.18;;
51224;SDS011;37298;42.688;23.312;2023-05-07T00:30:01;9.23;;;6.38;;
51224;SDS011;37298;42.688;23.312;2023-05-07T00:32:32;16.33;;;7.30;;
51224;SDS011;37298;42.688;23.312;2023-05-07T00:35:00;12.05;;;7.78;;
51224;SDS011;37298;42.688;23.312;2023-05-07T00:37:26;13.45;;;7.88;;
51224;SDS011;37298;42.688;23.312;2023-05-07T00:39:53;9.82;;;7.47;;
51224;SDS011;37298;42.688;23.312;2023-05-07T00:42:20;10.40;;;7.40;;
51224;SDS011;37298;42.688;23.312;2023-05-07T00:44:47;11.23;;;7.32;;
51224;SDS011;37298;42.688;23.312;2023-05-07T00:47:14;10.52;;;6.85;;
51224;SDS011;37298;42.688;23.312;2023-05-07T00:49:43;12.43;;;8.05;;
51224;SDS011;37298;42.688;23.312;2023-05-07T00:52:11;12.23;;;7.80;;
51224;SDS011;37298;42.688;23.312;2023-05-07T00:54:38;15.60;;;8.47;;
51224;SDS011;37298;42.688;23.312;2023-05-07T00:57:05;10.77;;;7.70;;
51224;SDS011;37298;42.688;23.312;2023-05-07T00:59:32;14.90;;;8.30;;
51224;SDS011;37298;42.688;23.312;2023-05-07T01:02:00;13.10;;;7.82;;
51224;SDS011;37298;42.688;23.312;2023-05-07T01:04:27;11.25;;;7.80;;
51224;SDS011;37298;42.688;23.312;2023-05-07T01:06:55;12.48;;;8.52;;
51224;SDS011;37298;42.688;23.312;2023-05-07T01:09:23;15.60;;;8.77;;
51224;SDS011;37298;42.688;23.312;2023-05-07T01:11:51;10.95;;;7.63;;
51224;SDS011;37298;42.688;23.312;2023-05-07T01:14:18;10.38;;;7.47;;
51224;SDS011;37298;42.688;23.312;2023-05-07T01:16:45;15.45;;;8.98;;
51224;SDS011;37298;42.688;23.312;2023-05-07T01:19:12;17.13;;;8.02;;
51224;SDS011;37298;42.688;23.312;2023-05-07T01:21:43;13.18;;;8.60;;
51224;SDS011;37298;42.688;23.312;2023-05-07T01:24:12;13.57;;;8.05;;
51224;SDS011;37298;42.688;23.312;2023-05-07T01:26:39;14.73;;;8.48;;
51224;SDS011;37298;42.688;23.312;2023-05-07T01:29:06;13.93;;;8.88;;
51224;SDS011;37298;42.688;23.312;2023-05-07T01:31:34;15.35;;;7.93;;
51224;SDS011;37298;42.688;23.312;2023-05-07T01:34:01;14.80;;;7.65;;
51224;SDS011;37298;42.688;23.312;2023-05-07T01:36:31;17.67;;;8.73;;
51224;SDS011;37298;42.688;23.312;2023-05-07T01:38:58;10.52;;;7.03;;
51224;SDS011;37298;42.688;23.312;2023-05-07T01:41:27;9.40;;;6.93;;
51224;SDS011;37298;42.688;23.312;2023-05-07T01:43:54;16.02;;;7.10;;
51224;SDS011;37298;42.688;23.312;2023-05-07T01:46:21;11.05;;;6.53;;
51224;SDS011;37298;42.688;23.312;2023-05-07T01:48:48;9.63;;;6.07;;
51224;SDS011;37298;42.688;23.312;2023-05-07T01:51:16;12.63;;;6.10;;
51224;SDS011;37298;42.688;23.312;2023-05-07T01:53:42;10.68;;;5.88;;
51224;SDS011;37298;42.688;23.312;2023-05-07T01:58:41;9.35;;;5.72;;
51224;SDS011;37298;42.688;23.312;2023-05-07T02:01:08;7.32;;;4.90;;
51224;SDS011;37298;42.688;23.312;2023-05-07T02:03:34;7.93;;;5.40;;
51224;SDS011;37298;42.688;23.312;2023-05-07T02:06:09;8.70;;;5.88;;
51224;SDS011;37298;42.688;23.312;2023-05-07T02:08:38;9.50;;;5.15;;
51224;SDS011;37298;42.688;23.312;2023-05-07T02:11:05;9.13;;;4.45;;
51224;SDS011;37298;42.688;23.312;2023-05-07T02:13:34;7.32;;;4.72;;
51224;SDS011;37298;42.688;23.312;2023-05-07T02:16:02;7.72;;;5.22;;
51224;SDS011;37298;42.688;23.312;2023-05-07T02:18:29;8.90;;;5.03;;
51224;SDS011;37298;42.688;23.312;2023-05-07T02:20:57;11.07;;;5.47;;
51224;SDS011;37298;42.688;23.312;2023-05-07T02:23:24;10.65;;;5.28;;
51224;SDS011;37298;42.688;23.312;2023-05-07T02:25:51;8.60;;;4.80;;
51224;SDS011;37298;42.688;23.312;2023-05-07T02:28:18;8.00;;;5.45;;
51224;SDS011;37298;42.688;23.312;2023-05-07T02:30:51;8.82;;;4.70;;
51224;SDS011;37298;42.688;23.312;2023-05-07T02:33:20;7.55;;;4.70;;
51224;SDS011;37298;42.688;23.312;2023-05-07T02:35:47;8.50;;;5.38;;
51224;SDS011;37298;42.688;23.312;2023-05-07T02:38:15;9.57;;;5.70;;
51224;SDS011;37298;42.688;23.312;2023-05-07T02:40:43;11.52;;;5.90;;
51224;SDS011;37298;42.688;23.312;2023-05-07T02:43:09;7.30;;;5.30;;
51224;SDS011;37298;42.688;23.312;2023-05-07T02:45:39;8.00;;;4.85;;
51224;SDS011;37298;42.688;23.312;2023-05-07T02:48:07;10.50;;;5.80;;
51224;SDS011;37298;42.688;23.312;2023-05-07T02:50:35;9.23;;;5.93;;
51224;SDS011;37298;42.688;23.312;2023-05-07T02:53:02;8.07;;;5.70;;
51224;SDS011;37298;42.688;23.312;2023-05-07T02:55:29;8.15;;;5.70;;
51224;SDS011;37298;42.688;23.312;2023-05-07T02:57:56;9.27;;;6.05;;
51224;SDS011;37298;42.688;23.312;2023-05-07T03:00:23;10.32;;;5.60;;
51224;SDS011;37298;42.688;23.312;2023-05-07T03:03:21;8.77;;;5.95;;
51224;SDS011;37298;42.688;23.312;2023-05-07T03:05:50;10.23;;;5.95;;
51224;SDS011;37298;42.688;23.312;2023-05-07T03:10:44;17.38;;;9.07;;
51224;SDS011;37298;42.688;23.312;2023-05-07T03:13:10;17.67;;;8.93;;
51224;SDS011;37298;42.688;23.312;2023-05-07T03:15:37;12.55;;;7.07;;
51224;SDS011;37298;42.688;23.312;2023-05-07T03:18:04;10.65;;;6.00;;
51224;SDS011;37298;42.688;23.312;2023-05-07T03:20:31;10.77;;;4.43;;
51224;SDS011;37298;42.688;23.312;2023-05-07T03:23:00;5.80;;;4.05;;
51224;SDS011;37298;42.688;23.312;2023-05-07T03:25:26;9.93;;;4.13;;
51224;SDS011;37298;42.688;23.312;2023-05-07T03:27:53;5.00;;;3.83;;
51224;SDS011;37298;42.688;23.312;2023-05-07T03:30:24;3.08;;;2.78;;
51224;SDS011;37298;42.688;23.312;2023-05-07T03:32:50;4.65;;;3.00;;
51224;SDS011;37298;42.688;23.312;2023-05-07T03:35:18;4.65;;;3.42;;
51224;SDS011;37298;42.688;23.312;2023-05-07T03:37:45;4.43;;;2.78;;
51224;SDS011;37298;42.688;23.312;2023-05-07T03:40:14;3.08;;;2.72;;
51224;SDS011;37298;42.688;23.312;2023-05-07T03:42:48;3.22;;;2.90;;
51224;SDS011;37298;42.688;23.312;2023-05-07T03:45:17;2.67;;;2.47;;
51224;SDS011;37298;42.688;23.312;2023-05-07T03:47:50;3.67;;;3.38;;
51224;SDS011;37298;42.688;23.312;2023-05-07T03:50:19;3.67;;;2.75;;
51224;SDS011;37298;42.688;23.312;2023-05-07T03:52:47;3.15;;;2.85;;
51224;SDS011;37298;42.688;23.312;2023-05-07T03:55:18;6.20;;;3.35;;
51224;SDS011;37298;42.688;23.312;2023-05-07T03:57:50;2.63;;;2.42;;
51224;SDS011;37298;42.688;23.312;2023-05-07T04:00:18;3.88;;;2.85;;
51224;SDS011;37298;42.688;23.312;2023-05-07T04:02:48;5.18;;;3.38;;
51224;SDS011;37298;42.688;23.312;2023-05-07T04:05:22;3.55;;;2.80;;
51224;SDS011;37298;42.688;23.312;2023-05-07T04:07:52;5.20;;;3.17;;
51224;SDS011;37298;42.688;23.312;2023-05-07T04:10:26;3.83;;;2.33;;
51224;SDS011;37298;42.688;23.312;2023-05-07T04:12:55;2.70;;;2.50;;
51224;SDS011;37298;42.688;23.312;2023-05-07T04:17:51;3.40;;;2.80;;
51224;SDS011;37298;42.688;23.312;2023-05-07T04:20:20;4.03;;;3.05;;
51224;SDS011;37298;42.688;23.312;2023-05-07T04:22:54;4.57;;;3.38;;
51224;SDS011;37298;42.688;23.312;2023-05-07T04:25:21;4.72;;;2.50;;
51224;SDS011;37298;42.688;23.312;2023-05-07T04:27:57;3.17;;;2.70;;
51224;SDS011;37298;42.688;23.312;2023-05-07T04:30:26;2.85;;;2.40;;
51224;SDS011;37298;42.688;23.312;2023-05-07T04:32:53;4.57;;;3.30;;
51224;SDS011;37298;42.688;23.312;2023-05-07T04:37:49;3.22;;;3.00;;
51224;SDS011;37298;42.688;23.312;2023-05-07T04:40:16;4.00;;;3.00;;
51224;SDS011;37298;42.688;23.312;2023-05-07T04:42:44;4.82;;;3.08;;
51224;SDS011;37298;42.688;23.312;2023-05-07T04:45:13;3.72;;;2.80;;
51224;SDS011;37298;42.688;23.312;2023-05-07T04:47:43;5.53;;;3.40;;
51224;SDS011;37298;42.688;23.312;2023-05-07T04:50:10;4.28;;;3.08;;
51224;SDS011;37298;42.688;23.312;2023-05-07T04:55:05;3.95;;;2.80;;
51224;SDS011;37298;42.688;23.312;2023-05-07T04:57:36;4.85;;;4.10;;
51224;SDS011;37298;42.688;23.312;2023-05-07T05:00:05;7.40;;;5.10;;
51224;SDS011;37298;42.688;23.312;2023-05-07T05:02:36;3.53;;;2.95;;
51224;SDS011;37298;42.688;23.312;2023-05-07T05:05:03;6.07;;;3.03;;
51224;SDS011;37298;42.688;23.312;2023-05-07T05:07:30;2.95;;;2.55;;
51224;SDS011;37298;42.688;23.312;2023-05-07T05:09:57;5.57;;;3.33;;
51224;SDS011;37298;42.688;23.312;2023-05-07T05:12:24;4.15;;;2.90;;
51224;SDS011;37298;42.688;23.312;2023-05-07T05:14:52;4.80;;;3.58;;
51224;SDS011;37298;42.688;23.312;2023-05-07T05:17:19;5.57;;;3.53;;
51224;SDS011;37298;42.688;23.312;2023-05-07T05:19:47;3.67;;;3.38;;
51224;SDS011;37298;42.688;23.312;2023-05-07T05:22:14;5.78;;;3.17;;
51224;SDS011;37298;42.688;23.312;2023-05-07T05:24:41;4.20;;;3.22;;
51224;SDS011;37298;42.688;23.312;2023-05-07T05:27:08;3.85;;;3.45;;
51224;SDS011;37298;42.688;23.312;2023-05-07T05:29:34;3.05;;;2.75;;
51224;SDS011;37298;42.688;23.312;2023-05-07T05:32:01;7.28;;;3.25;;
51224;SDS011;37298;42.688;23.312;2023-05-07T05:34:30;5.35;;;2.90;;
51224;SDS011;37298;42.688;23.312;2023-05-07T05:37:00;4.97;;;3.65;;
51224;SDS011;37298;42.688;23.312;2023-05-07T05:39:27;3.38;;;2.88;;
51224;SDS011;37298;42.688;23.312;2023-05-07T05:41:54;6.38;;;4.40;;
51224;SDS011;37298;42.688;23.312;2023-05-07T05:44:21;8.43;;;4.38;;
51224;SDS011;37298;42.688;23.312;2023-05-07T05:46:48;5.65;;;3.03;;
51224;SDS011;37298;42.688;23.312;2023-05-07T05:49:16;5.57;;;3.38;;
51224;SDS011;37298;42.688;23.312;2023-05-07T05:51:43;5.22;;;3.97;;
51224;SDS011;37298;42.688;23.312;2023-05-07T05:54:11;6.75;;;3.63;;
51224;SDS011;37298;42.688;23.312;2023-05-07T05:56:38;8.70;;;4.47;;
51224;SDS011;37298;42.688;23.312;2023-05-07T05:59:05;5.13;;;3.17;;
51224;SDS011;37298;42.688;23.312;2023-05-07T06:01:33;5.78;;;3.85;;
51224;SDS011;37298;42.688;23.312;2023-05-07T06:04:02;4.85;;;3.65;;
51224;SDS011;37298;42.688;23.312;2023-05-07T06:06:29;5.63;;;3.63;;
51224;SDS011;37298;42.688;23.312;2023-05-07T06:08:57;6.47;;;3.78;;
51224;SDS011;37298;42.688;23.312;2023-05-07T06:11:32;4.60;;;3.60;;
51224;SDS011;37298;42.688;23.312;2023-05-07T06:13:59;8.48;;;3.55;;
51224;SDS011;37298;42.688;23.312;2023-05-07T06:16:27;4.63;;;3.15;;
51224;SDS011;37298;42.688;23.312;2023-05-07T06:18:55;4.18;;;2.95;;
51224;SDS011;37298;42.688;23.312;2023-05-07T06:21:21;4.25;;;3.08;;
51224;SDS011;37298;42.688;23.312;2023-05-07T06:23:48;5.05;;;3.13;;
51224;SDS011;37298;42.688;23.312;2023-05-07T06:26:17;3.55;;;2.65;;
51224;SDS011;37298;42.688;23.312;2023-05-07T06:28:48;6.13;;;3.35;;
51224;SDS011;37298;42.688;23.312;2023-05-07T06:31:16;6.25;;;3.63;;
51224;SDS011;37298;42.688;23.312;2023-05-07T06:33:51;5.38;;;3.45;;
51224;SDS011;37298;42.688;23.312;2023-05-07T06:36:18;4.55;;;3.40;;
51224;SDS011;37298;42.688;23.312;2023-05-07T06:38:46;7.05;;;3.65;;
51224;SDS011;37298;42.688;23.312;2023-05-07T06:41:14;8.85;;;4.32;;
51224;SDS011;37298;42.688;23.312;2023-05-07T06:43:42;5.68;;;3.70;;
51224;SDS011;37298;42.688;23.312;2023-05-07T06:46:37;4.03;;;3.17;;
51224;SDS011;37298;42.688;23.312;2023-05-07T06:49:05;7.40;;;3.90;;
51224;SDS011;37298;42.688;23.312;2023-05-07T06:51:35;5.63;;;3.72;;
51224;SDS011;37298;42.688;23.312;2023-05-07T06:54:03;6.40;;;3.42;;
51224;SDS011;37298;42.688;23.312;2023-05-07T06:56:31;6.32;;;3.88;;
51224;SDS011;37298;42.688;23.312;2023-05-07T06:58:59;3.43;;;2.90;;
51224;SDS011;37298;42.688;23.312;2023-05-07T07:01:29;5.82;;;2.92;;
51224;SDS011;37298;42.688;23.312;2023-05-07T07:03:57;6.68;;;3.30;;
51224;SDS011;37298;42.688;23.312;2023-05-07T07:06:24;6.47;;;4.10;;
51224;SDS011;37298;42.688;23.312;2023-05-07T07:08:51;6.28;;;3.35;;
51224;SDS011;37298;42.688;23.312;2023-05-07T07:11:18;5.53;;;3.28;;
51224;SDS011;37298;42.688;23.312;2023-05-07T07:13:46;6.82;;;4.07;;
51224;SDS011;37298;42.688;23.312;2023-05-07T07:16:13;5.80;;;3.47;;
51224;SDS011;37298;42.688;23.312;2023-05-07T07:18:40;6.47;;;3.70;;
51224;SDS011;37298;42.688;23.312;2023-05-07T07:21:08;7.30;;;3.88;;
51224;SDS011;37298;42.688;23.312;2023-05-07T07:23:35;4.97;;;3.20;;
51224;SDS011;37298;42.688;23.312;2023-05-07T07:26:02;8.10;;;4.05;;
51224;SDS011;37298;42.688;23.312;2023-05-07T07:28:29;6.53;;;3.58;;
51224;SDS011;37298;42.688;23.312;2023-05-07T07:30:55;3.72;;;2.85;;
51224;SDS011;37298;42.688;23.312;2023-05-07T07:33:22;7.07;;;3.22;;
51224;SDS011;37298;42.688;23.312;2023-05-07T07:35:49;4.35;;;3.20;;
51224;SDS011;37298;42.688;23.312;2023-05-07T07:38:17;3.45;;;2.70;;
51224;SDS011;37298;42.688;23.312;2023-05-07T07:40:45;6.93;;;3.72;;
51224;SDS011;37298;42.688;23.312;2023-05-07T07:43:12;4.38;;;3.08;;
51224;SDS011;37298;42.688;23.312;2023-05-07T07:45:39;6.07;;;3.17;;
51224;SDS011;37298;42.688;23.312;2023-05-07T07:48:06;4.13;;;3.22;;
51224;SDS011;37298;42.688;23.312;2023-05-07T07:50:36;7.03;;;2.90;;
51224;SDS011;37298;42.688;23.312;2023-05-07T07:53:04;5.07;;;3.25;;
51224;SDS011;37298;42.688;23.312;2023-05-07T07:55:32;3.72;;;2.78;;
51224;SDS011;37298;42.688;23.312;2023-05-07T07:58:00;3.80;;;2.83;;
51224;SDS011;37298;42.688;23.312;2023-05-07T08:00:26;17.88;;;4.55;;
51224;SDS011;37298;42.688;23.312;2023-05-07T08:02:55;5.30;;;2.70;;
51224;SDS011;37298;42.688;23.312;2023-05-07T08:05:27;5.60;;;3.38;;
51224;SDS011;37298;42.688;23.312;2023-05-07T08:07:54;5.30;;;3.25;;
51224;SDS011;37298;42.688;23.312;2023-05-07T08:10:26;4.82;;;3.40;;
51224;SDS011;37298;42.688;23.312;2023-05-07T08:13:00;4.43;;;3.20;;
51224;SDS011;37298;42.688;23.312;2023-05-07T08:15:29;3.53;;;2.47;;
51224;SDS011;37298;42.688;23.312;2023-05-07T08:17:56;4.35;;;2.50;;
51224;SDS011;37298;42.688;23.312;2023-05-07T08:20:25;3.05;;;2.45;;
51224;SDS011;37298;42.688;23.312;2023-05-07T08:22:52;3.17;;;2.35;;
51224;SDS011;37298;42.688;23.312;2023-05-07T08:25:19;3.80;;;2.80;;
51224;SDS011;37298;42.688;23.312;2023-05-07T08:27:46;3.65;;;2.78;;
51224;SDS011;37298;42.688;23.312;2023-05-07T08:30:16;3.60;;;2.37;;
51224;SDS011;37298;42.688;23.312;2023-05-07T08:32:43;3.10;;;2.30;;
51224;SDS011;37298;42.688;23.312;2023-05-07T08:35:10;3.58;;;2.67;;
51224;SDS011;37298;42.688;23.312;2023-05-07T08:37:37;4.25;;;2.78;;
51224;SDS011;37298;42.688;23.312;2023-05-07T08:40:05;3.15;;;2.30;;
51224;SDS011;37298;42.688;23.312;2023-05-07T08:42:35;4.70;;;2.97;;
51224;SDS011;37298;42.688;23.312;2023-05-07T08:45:02;2.53;;;2.05;;
51224;SDS011;37298;42.688;23.312;2023-05-07T08:47:42;4.78;;;2.90;;
51224;SDS011;37298;42.688;23.312;2023-05-07T08:50:10;3.70;;;2.75;;
51224;SDS011;37298;42.688;23.312;2023-05-07T08:52:38;3.63;;;2.50;;
51224;SDS011;37298;42.688;23.312;2023-05-07T08:55:06;2.97;;;2.10;;
51224;SDS011;37298;42.688;23.312;2023-05-07T08:57:34;3.75;;;2.90;;
51224;SDS011;37298;42.688;23.312;2023-05-07T09:00:01;4.13;;;2.67;;
51224;SDS011;37298;42.688;23.312;2023-05-07T09:02:29;4.20;;;3.25;;
51224;SDS011;37298;42.688;23.312;2023-05-07T09:04:58;4.07;;;2.42;;
51224;SDS011;37298;42.688;23.312;2023-05-07T09:07:25;3.25;;;2.38;;
51224;SDS011;37298;42.688;23.312;2023-05-07T09:09:53;3.15;;;2.47;;
51224;SDS011;37298;42.688;23.312;2023-05-07T09:12:21;2.50;;;2.10;;
51224;SDS011;37298;42.688;23.312;2023-05-07T09:14:48;3.40;;;2.30;;
51224;SDS011;37298;42.688;23.312;2023-05-07T09:17:15;2.70;;;2.08;;
51224;SDS011;37298;42.688;23.312;2023-05-07T09:19:42;2.33;;;1.73;;
51224;SDS011;37298;42.688;23.312;2023-05-07T09:22:11;3.85;;;2.75;;
51224;SDS011;37298;42.688;23.312;2023-05-07T09:24:49;3.00;;;2.08;;
51224;SDS011;37298;42.688;23.312;2023-05-07T09:27:18;2.58;;;2.03;;
51224;SDS011;37298;42.688;23.312;2023-05-07T09:29:45;2.75;;;2.20;;
51224;SDS011;37298;42.688;23.312;2023-05-07T09:32:14;2.80;;;1.92;;
51224;SDS011;37298;42.688;23.312;2023-05-07T09:34:41;1.83;;;1.48;;
51224;SDS011;37298;42.688;23.312;2023-05-07T09:37:08;2.47;;;1.92;;
51224;SDS011;37298;42.688;23.312;2023-05-07T09:39:40;4.15;;;2.13;;
51224;SDS011;37298;42.688;23.312;2023-05-07T09:42:08;4.22;;;2.92;;
51224;SDS011;37298;42.688;23.312;2023-05-07T09:44:35;2.80;;;2.10;;
51224;SDS011;37298;42.688;23.312;2023-05-07T09:47:05;4.55;;;1.77;;
51224;SDS011;37298;42.688;23.312;2023-05-07T09:49:38;2.60;;;1.70;;
51224;SDS011;37298;42.688;23.312;2023-05-07T09:52:09;2.25;;;1.77;;
51224;SDS011;37298;42.688;23.312;2023-05-07T09:54:42;2.80;;;1.70;;
51224;SDS011;37298;42.688;23.312;2023-05-07T09:57:10;4.68;;;1.70;;
51224;SDS011;37298;42.688;23.312;2023-05-07T09:59:39;1.70;;;1.50;;
51224;SDS011;37298;42.688;23.312;2023-05-07T10:02:10;4.70;;;2.40;;
51224;SDS011;37298;42.688;23.312;2023-05-07T10:04:44;2.78;;;2.20;;
51224;SDS011;37298;42.688;23.312;2023-05-07T10:07:14;2.33;;;1.70;;
51224;SDS011;37298;42.688;23.312;2023-05-07T10:09:43;4.50;;;1.63;;
51224;SDS011;37298;42.688;23.312;2023-05-07T10:12:18;2.33;;;1.80;;
51224;SDS011;37298;42.688;23.312;2023-05-07T10:14:45;3.95;;;1.45;;
51224;SDS011;37298;42.688;23.312;2023-05-07T10:17:14;2.40;;;1.60;;
51224;SDS011;37298;42.688;23.312;2023-05-07T10:19:44;2.78;;;2.10;;
51224;SDS011;37298;42.688;23.312;2023-05-07T10:22:11;1.95;;;1.60;;
51224;SDS011;37298;42.688;23.312;2023-05-07T10:24:44;2.65;;;1.90;;
51224;SDS011;37298;42.688;23.312;2023-05-07T10:27:15;2.28;;;1.50;;
51224;SDS011;37298;42.688;23.312;2023-05-07T10:29:53;2.70;;;1.80;;
51224;SDS011;37298;42.688;23.312;2023-05-07T10:35:13;1.60;;;1.38;;
51224;SDS011;37298;42.688;23.312;2023-05-07T10:37:41;3.67;;;1.83;;
51224;SDS011;37298;42.688;23.312;2023-05-07T10:40:10;3.63;;;2.00;;
51224;SDS011;37298;42.688;23.312;2023-05-07T10:42:37;1.67;;;1.30;;
51224;SDS011;37298;42.688;23.312;2023-05-07T10:45:14;2.90;;;1.88;;
51224;SDS011;37298;42.688;23.312;2023-05-07T10:48:05;1.75;;;1.60;;
51224;SDS011;37298;42.688;23.312;2023-05-07T10:50:32;4.65;;;1.90;;
51224;SDS011;37298;42.688;23.312;2023-05-07T10:53:20;1.85;;;1.42;;
51224;SDS011;37298;42.688;23.312;2023-05-07T10:58:46;1.88;;;1.35;;
51224;SDS011;37298;42.688;23.312;2023-05-07T11:04:16;2.20;;;1.50;;
51224;SDS011;37298;42.688;23.312;2023-05-07T11:12:52;2.25;;;1.60;;
51224;SDS011;37298;42.688;23.312;2023-05-07T11:18:25;2.97;;;1.85;;
51224;SDS011;37298;42.688;23.312;2023-05-07T11:21:12;1.95;;;1.40;;
51224;SDS011;37298;42.688;23.312;2023-05-07T11:23:57;1.70;;;1.35;;
51224;SDS011;37298;42.688;23.312;2023-05-07T11:26:41;2.28;;;1.95;;
51224;SDS011;37298;42.688;23.312;2023-05-07T11:29:10;3.35;;;2.28;;
51224;SDS011;37298;42.688;23.312;2023-05-07T11:31:37;2.17;;;1.65;;
51224;SDS011;37298;42.688;23.312;2023-05-07T11:34:06;2.28;;;1.80;;
51224;SDS011;37298;42.688;23.312;2023-05-07T11:36:33;4.15;;;1.70;;
51224;SDS011;37298;42.688;23.312;2023-05-07T11:39:02;2.33;;;1.70;;
51224;SDS011;37298;42.688;23.312;2023-05-07T11:41:33;1.88;;;1.38;;
51224;SDS011;37298;42.688;23.312;2023-05-07T11:44:00;1.75;;;1.48;;
51224;SDS011;37298;42.688;23.312;2023-05-07T11:46:27;1.77;;;1.42;;
51224;SDS011;37298;42.688;23.312;2023-05-07T11:48:55;1.58;;;1.30;;
51224;SDS011;37298;42.688;23.312;2023-05-07T11:51:24;2.77;;;1.80;;
51224;SDS011;37298;42.688;23.312;2023-05-07T11:53:52;2.17;;;1.70;;
51224;SDS011;37298;42.688;23.312;2023-05-07T11:56:20;1.48;;;1.30;;
51224;SDS011;37298;42.688;23.312;2023-05-07T11:58:47;2.03;;;1.65;;
51224;SDS011;37298;42.688;23.312;2023-05-07T12:01:15;2.88;;;1.63;;
51224;SDS011;37298;42.688;23.312;2023-05-07T12:03:44;1.65;;;1.48;;
51224;SDS011;37298;42.688;23.312;2023-05-07T12:06:11;2.03;;;1.47;;
51224;SDS011;37298;42.688;23.312;2023-05-07T12:08:40;2.63;;;1.73;;
51224;SDS011;37298;42.688;23.312;2023-05-07T12:11:07;3.88;;;1.50;;
51224;SDS011;37298;42.688;23.312;2023-05-07T12:13:35;1.80;;;1.50;;
51224;SDS011;37298;42.688;23.312;2023-05-07T12:16:02;1.35;;;1.10;;
51224;SDS011;37298;42.688;23.312;2023-05-07T12:18:29;1.30;;;1.00;;
51224;SDS011;37298;42.688;23.312;2023-05-07T12:20:56;2.53;;;1.07;;
51224;SDS011;37298;42.688;23.312;2023-05-07T12:23:24;1.55;;;1.00;;
51224;SDS011;37298;42.688;23.312;2023-05-07T12:25:52;1.23;;;1.00;;
51224;SDS011;37298;42.688;23.312;2023-05-07T12:28:19;1.42;;;1.10;;
51224;SDS011;37298;42.688;23.312;2023-05-07T12:30:46;1.80;;;1.17;;
51224;SDS011;37298;42.688;23.312;2023-05-07T12:33:15;1.50;;;1.30;;
51224;SDS011;37298;42.688;23.312;2023-05-07T12:35:42;2.15;;;1.30;;
51224;SDS011;37298;42.688;23.312;2023-05-07T12:38:10;1.60;;;1.27;;
51224;SDS011;37298;42.688;23.312;2023-05-07T12:40:37;1.70;;;1.27;;
51224;SDS011;37298;42.688;23.312;2023-05-07T12:43:05;1.73;;;1.20;;
51224;SDS011;37298;42.688;23.312;2023-05-07T12:45:35;1.40;;;1.20;;
51224;SDS011;37298;42.688;23.312;2023-05-07T12:48:03;1.83;;;1.40;;
51224;SDS011;37298;42.688;23.312;2023-05-07T12:50:33;1.97;;;1.23;;
51224;SDS011;37298;42.688;23.312;2023-05-07T12:53:00;1.90;;;1.23;;
51224;SDS011;37298;42.688;23.312;2023-05-07T12:55:28;2.45;;;1.58;;
51224;SDS011;37298;42.688;23.312;2023-05-07T12:57:55;3.67;;;1.40;;
51224;SDS011;37298;42.688;23.312;2023-05-07T13:03:10;1.90;;;1.30;;
51224;SDS011;37298;42.688;23.312;2023-05-07T13:05:37;2.55;;;1.30;;
51224;SDS011;37298;42.688;23.312;2023-05-07T13:08:04;1.73;;;1.35;;
51224;SDS011;37298;42.688;23.312;2023-05-07T13:10:31;3.10;;;1.20;;
51224;SDS011;37298;42.688;23.312;2023-05-07T13:12:59;3.10;;;1.48;;
51224;SDS011;37298;42.688;23.312;2023-05-07T13:15:26;1.85;;;1.50;;
51224;SDS011;37298;42.688;23.312;2023-05-07T13:17:53;2.67;;;1.50;;
51224;SDS011;37298;42.688;23.312;2023-05-07T13:20:22;1.98;;;1.60;;
51224;SDS011;37298;42.688;23.312;2023-05-07T13:22:49;2.42;;;1.45;;
51224;SDS011;37298;42.688;23.312;2023-05-07T13:25:15;2.85;;;1.60;;
51224;SDS011;37298;42.688;23.312;2023-05-07T13:27:42;1.85;;;1.65;;
51224;SDS011;37298;42.688;23.312;2023-05-07T13:30:09;3.78;;;1.70;;
51224;SDS011;37298;42.688;23.312;2023-05-07T13:32:36;2.70;;;1.60;;
51224;SDS011;37298;42.688;23.312;2023-05-07T13:35:03;2.83;;;1.50;;
51224;SDS011;37298;42.688;23.312;2023-05-07T13:37:32;2.08;;;1.60;;
51224;SDS011;37298;42.688;23.312;2023-05-07T13:39:58;1.75;;;1.45;;
51224;SDS011;37298;42.688;23.312;2023-05-07T13:42:25;1.95;;;1.50;;
51224;SDS011;37298;42.688;23.312;2023-05-07T13:44:52;2.03;;;1.30;;
51224;SDS011;37298;42.688;23.312;2023-05-07T13:47:19;1.83;;;1.25;;
51224;SDS011;37298;42.688;23.312;2023-05-07T13:49:46;2.75;;;1.38;;
51224;SDS011;37298;42.688;23.312;2023-05-07T13:52:15;1.60;;;1.40;;
51224;SDS011;37298;42.688;23.312;2023-05-07T13:54:43;4.32;;;1.65;;
51224;SDS011;37298;42.688;23.312;2023-05-07T13:57:10;5.03;;;1.80;;
51224;SDS011;37298;42.688;23.312;2023-05-07T13:59:37;1.80;;;1.40;;
51224;SDS011;37298;42.688;23.312;2023-05-07T14:02:04;2.00;;;1.60;;
51224;SDS011;37298;42.688;23.312;2023-05-07T14:04:31;1.95;;;1.27;;
51224;SDS011;37298;42.688;23.312;2023-05-07T14:06:57;3.63;;;1.48;;
51224;SDS011;37298;42.688;23.312;2023-05-07T14:09:24;2.55;;;1.30;;
51224;SDS011;37298;42.688;23.312;2023-05-07T14:11:52;2.58;;;1.75;;
51224;SDS011;37298;42.688;23.312;2023-05-07T14:14:19;3.38;;;2.10;;
51224;SDS011;37298;42.688;23.312;2023-05-07T14:16:46;1.83;;;1.42;;
51224;SDS011;37298;42.688;23.312;2023-05-07T14:19:13;2.40;;;1.70;;
51224;SDS011;37298;42.688;23.312;2023-05-07T14:21:40;1.70;;;1.48;;
51224;SDS011;37298;42.688;23.312;2023-05-07T14:24:07;2.50;;;1.70;;
51224;SDS011;37298;42.688;23.312;2023-05-07T14:26:34;5.43;;;1.70;;
51224;SDS011;37298;42.688;23.312;2023-05-07T14:29:02;2.88;;;2.08;;
51224;SDS011;37298;42.688;23.312;2023-05-07T14:31:29;3.90;;;1.90;;
51224;SDS011;37298;42.688;23.312;2023-05-07T14:33:56;2.85;;;1.95;;
51224;SDS011;37298;42.688;23.312;2023-05-07T14:38:52;3.70;;;2.00;;
51224;SDS011;37298;42.688;23.312;2023-05-07T14:41:19;2.83;;;1.92;;
51224;SDS011;37298;42.688;23.312;2023-05-07T14:43:46;2.40;;;1.58;;
51224;SDS011;37298;42.688;23.312;2023-05-07T14:46:17;2.08;;;1.52;;
51224;SDS011;37298;42.688;23.312;2023-05-07T14:48:43;2.78;;;1.83;;
51224;SDS011;37298;42.688;23.312;2023-05-07T14:51:11;3.28;;;2.00;;
51224;SDS011;37298;42.688;23.312;2023-05-07T14:53:38;2.75;;;1.80;;
51224;SDS011;37298;42.688;23.312;2023-05-07T14:56:05;2.25;;;1.65;;
51224;SDS011;37298;42.688;23.312;2023-05-07T14:58:32;2.45;;;1.50;;
51224;SDS011;37298;42.688;23.312;2023-05-07T15:00:59;2.35;;;1.63;;
51224;SDS011;37298;42.688;23.312;2023-05-07T15:03:27;4.13;;;1.77;;
51224;SDS011;37298;42.688;23.312;2023-05-07T15:05:54;2.13;;;1.58;;
51224;SDS011;37298;42.688;23.312;2023-05-07T15:08:21;1.83;;;1.53;;
51224;SDS011;37298;42.688;23.312;2023-05-07T15:10:48;5.65;;;4.28;;
51224;SDS011;37298;42.688;23.312;2023-05-07T15:13:14;4.00;;;1.60;;
51224;SDS011;37298;42.688;23.312;2023-05-07T15:15:41;2.55;;;1.70;;